Air Navigation Services of Czech Republic
Airport: LKCV Updated:  25.07.2017 12:08:04  UTC
 METAR LKCV 25.07. 12:00 ...
METAR LKCV 251200Z 26013KT 9999 FEW035 BKN060 BKN070 19/11 Q1004=